Time;durP1;ratioP1;P1;durP2;ratioP2;P2;SDS_P1;SDS_P2;PMS_P1;PMS_P2;Temp;Humidity;BMP_temperature;BMP_pressure;BME280_temperature;BME280_humidity;BME280_pressure;Samples;Min_cycle;Max_cycle;Signal;HPM_P1;HPM_P2
2022/09/20 00:01:08;;;;;;;;;;;230.90;2252.80;;;;;;5033577;28;20449;-65
2022/09/20 00:03:35;;;;;;;;;;;230.90;2252.80;;;;;;5033508;28;19917;-66
2022/09/20 00:06:01;;;;;;;;;;;230.90;2252.80;;;;;;5033493;28;19966;-64
2022/09/20 00:08:27;;;;;;;;;;;230.90;2252.80;;;;;;5033449;28;20043;-61
2022/09/20 00:10:56;;;;;;;;;;;230.90;2252.80;;;;;;5033344;28;20367;-61
2022/09/20 00:13:22;;;;;;;;;;;230.80;2252.80;;;;;;5033231;28;20395;-61
2022/09/20 00:15:48;;;;;;;;;;;230.80;2252.80;;;;;;5033387;28;20047;-61
2022/09/20 00:18:13;;;;;;;;;;;230.80;2252.80;;;;;;5033137;28;19913;-62
2022/09/20 00:20:48;;;;;;;;;;;230.80;2252.80;;;;;;5033440;28;19936;-63
2022/09/20 00:23:14;;;;;;;;;;;230.80;2252.80;;;;;;5032936;28;19925;-61
2022/09/20 00:25:40;;;;;;;;;;;230.70;2252.80;;;;;;5033155;28;20463;-61
2022/09/20 00:28:05;;;;;;;;;;;230.70;2252.80;;;;;;5015384;28;19999;-61
2022/09/20 00:30:32;;;;;;;;;;;230.70;2252.80;;;;;;5033131;28;19916;-61
2022/09/20 00:32:57;;;;;;;;;;;230.70;2252.80;;;;;;5033140;28;19910;-61
2022/09/20 00:35:23;;;;;;;;;;;230.80;2252.80;;;;;;5032902;28;19963;-61
2022/09/20 00:37:48;;;;;;;;;;;230.80;2252.80;;;;;;5032919;28;19913;-61
2022/09/20 00:40:16;;;;;;;;;;;230.80;2252.80;;;;;;5032797;28;19913;-61
2022/09/20 00:42:41;;;;;;;;;;;230.80;2252.80;;;;;;5032509;28;19909;-63
2022/09/20 00:45:07;;;;;;;;;;;230.80;2252.80;;;;;;5032285;28;19921;-61
2022/09/20 00:47:36;;;;;;;;;;;230.70;2252.80;;;;;;5032661;28;19996;-61
2022/09/20 00:50:09;;;;;;;;;;;230.70;2252.80;;;;;;5032556;28;19932;-61
2022/09/20 00:52:35;;;;;;;;;;;230.70;2252.80;;;;;;5032788;28;19909;-61
2022/09/20 00:55:02;;;;;;;;;;;230.70;2252.80;;;;;;5032382;28;20271;-61
2022/09/20 00:57:34;;;;;;;;;;;230.70;2252.80;;;;;;5032533;28;20363;-61
2022/09/20 01:00:00;;;;;;;;;;;230.70;2252.80;;;;;;5032630;28;19935;-61
2022/09/20 01:02:27;;;;;;;;;;;230.80;2252.80;;;;;;5032450;28;19932;-61
2022/09/20 01:04:54;;;;;;;;;;;230.80;2252.80;;;;;;5032180;28;19916;-61
2022/09/20 01:07:21;;;;;;;;;;;230.80;2252.80;;;;;;5032355;28;20341;-61
2022/09/20 01:09:47;;;;;;;;;;;230.70;2252.80;;;;;;5032187;28;20002;-66
2022/09/20 01:12:15;;;;;;;;;;;230.60;2252.80;;;;;;5032177;28;19909;-67
2022/09/20 01:14:41;;;;;;;;;;;230.60;2252.80;;;;;;5031941;28;20267;-66
2022/09/20 01:17:07;;;;;;;;;;;230.60;2252.80;;;;;;5032471;28;19913;-67
2022/09/20 01:19:38;;;;;;;;;;;230.70;2252.80;;;;;;5032139;28;19910;-65
2022/09/20 01:22:06;;;;;;;;;;;230.80;2252.80;;;;;;5031871;28;19986;-66
2022/09/20 01:24:38;;;;;;;;;;;230.80;2252.80;;;;;;5031504;28;19924;-67
2022/09/20 01:27:03;;;;;;;;;;;230.90;2252.80;;;;;;5031744;28;20371;-66
2022/09/20 01:29:36;;;;;;;;;;;230.90;2252.80;;;;;;5031904;28;19913;-63
2022/09/20 01:32:03;;;;;;;;;;;230.80;2252.80;;;;;;5013941;28;20402;-66
2022/09/20 01:34:32;;;;;;;;;;;230.80;2252.80;;;;;;5031653;28;20302;-65
2022/09/20 01:37:23;;;;;;;;;;;230.80;2252.80;;;;;;5031817;28;19909;-67
2022/09/20 01:39:49;;;;;;;;;;;230.90;2252.80;;;;;;5027514;28;19960;-62
2022/09/20 01:42:15;;;;;;;;;;;231.00;2252.80;;;;;;5031659;28;19909;-62
2022/09/20 01:44:43;;;;;;;;;;;231.10;2252.80;;;;;;5031159;28;19921;-61
2022/09/20 01:47:19;;;;;;;;;;;231.20;2252.80;;;;;;5031564;28;19914;-62
2022/09/20 01:50:03;;;;;;;;;;;231.20;2252.80;;;;;;5031651;28;19916;-62
2022/09/20 01:52:47;;;;;;;;;;;231.00;2252.80;;;;;;5031658;28;20058;-63
2022/09/20 01:55:31;;;;;;;;;;;230.90;2252.80;;;;;;5031194;28;19956;-62
2022/09/20 01:57:57;;;;;;;;;;;230.90;2252.80;;;;;;5012403;28;19972;-63
2022/09/20 02:00:24;;;;;;;;;;;231.00;2252.80;;;;;;5031083;28;20093;-62
2022/09/20 02:03:03;;;;;;;;;;;230.90;2252.80;;;;;;5031227;28;19925;-63
2022/09/20 02:05:49;;;;;;;;;;;230.90;2252.80;;;;;;5031206;28;20279;-62
2022/09/20 02:08:17;;;;;;;;;;;231.00;2252.80;;;;;;4950829;29;20009;-62
2022/09/20 02:10:49;;;;;;;;;;;231.00;2252.80;;;;;;4950817;29;19911;-63
2022/09/20 02:13:20;;;;;;;;;;;230.90;2252.80;;;;;;4951066;29;19911;-62
2022/09/20 02:15:54;;;;;;;;;;;230.90;2252.80;;;;;;4950975;29;19918;-62
2022/09/20 02:18:31;;;;;;;;;;;230.90;2252.80;;;;;;4950793;29;20289;-61
2022/09/20 02:21:04;;;;;;;;;;;230.90;2252.80;;;;;;4950875;29;19910;-61
2022/09/20 02:23:41;;;;;;;;;;;230.90;2252.80;;;;;;4950422;29;19918;-63
2022/09/20 02:26:20;;;;;;;;;;;230.90;2252.80;;;;;;4950937;29;19910;-62
2022/09/20 02:28:55;;;;;;;;;;;230.80;2252.80;;;;;;4950663;29;19911;-61
2022/09/20 02:31:26;;;;;;;;;;;230.80;2252.80;;;;;;4950425;29;19911;-62
2022/09/20 02:34:12;;;;;;;;;;;230.80;2252.80;;;;;;4950494;29;19910;-63
2022/09/20 02:36:37;;;;;;;;;;;230.70;2252.80;;;;;;4950766;29;20005;-63
2022/09/20 02:39:09;;;;;;;;;;;230.60;2252.80;;;;;;4950250;29;19954;-62
2022/09/20 02:41:50;;;;;;;;;;;230.70;2252.80;;;;;;4950602;29;19925;-62
2022/09/20 02:44:18;;;;;;;;;;;230.70;2252.80;;;;;;4954486;28;19950;-63
2022/09/20 02:46:49;;;;;;;;;;;230.80;2252.80;;;;;;5030215;28;19964;-62
2022/09/20 02:49:35;;;;;;;;;;;230.80;2252.80;;;;;;5030614;28;19916;-62
2022/09/20 02:52:10;;;;;;;;;;;230.90;2252.80;;;;;;4950090;29;19978;-60
2022/09/20 02:54:55;;;;;;;;;;;230.90;2252.80;;;;;;4950434;29;19917;-62
2022/09/20 02:57:32;;;;;;;;;;;230.90;2252.80;;;;;;4950091;29;20014;-61
2022/09/20 03:00:01;;;;;;;;;;;230.90;2252.80;;;;;;4950416;29;20393;-63
2022/09/20 03:02:30;;;;;;;;;;;230.90;2252.80;;;;;;4950392;29;19910;-62
2022/09/20 03:05:11;;;;;;;;;;;230.80;2252.80;;;;;;4950386;29;20025;-62
2022/09/20 03:07:43;;;;;;;;;;;230.80;2252.80;;;;;;4950720;28;20337;-62
2022/09/20 03:10:26;;;;;;;;;;;230.70;2252.80;;;;;;4954286;29;20358;-64
2022/09/20 03:13:18;;;;;;;;;;;230.70;2252.80;;;;;;4954249;29;19911;-62
2022/09/20 03:15:51;;;;;;;;;;;230.70;2252.80;;;;;;4951110;29;19926;-63
2022/09/20 03:18:18;;;;;;;;;;;230.60;2252.80;;;;;;4954277;29;19918;-62
2022/09/20 03:20:51;;;;;;;;;;;230.60;2252.80;;;;;;4954065;29;20306;-62
2022/09/20 03:23:16;;;;;;;;;;;230.50;2252.80;;;;;;4954019;29;20352;-62
2022/09/20 03:25:48;;;;;;;;;;;230.50;2252.80;;;;;;4953675;29;19949;-61
2022/09/20 03:28:21;;;;;;;;;;;230.50;2252.80;;;;;;4965028;28;19913;-62
2022/09/20 03:31:02;;;;;;;;;;;230.40;2252.80;;;;;;5034133;28;19917;-62
2022/09/20 03:33:33;;;;;;;;;;;230.50;2252.80;;;;;;5034253;28;19963;-65
2022/09/20 03:36:07;;;;;;;;;;;230.60;2252.80;;;;;;5034126;28;19952;-61
2022/09/20 03:38:39;;;;;;;;;;;230.60;2252.80;;;;;;5033742;28;20378;-61
2022/09/20 03:41:23;;;;;;;;;;;230.70;2252.80;;;;;;5033647;28;19921;-64
2022/09/20 03:43:59;;;;;;;;;;;230.70;2252.80;;;;;;5034086;28;20019;-65
2022/09/20 03:46:26;;;;;;;;;;;230.70;2252.80;;;;;;5033777;28;19936;-64
2022/09/20 03:49:10;;;;;;;;;;;230.80;2252.80;;;;;;5033826;28;20008;-65
2022/09/20 03:51:50;;;;;;;;;;;230.80;2252.80;;;;;;5033952;28;19909;-64
2022/09/20 03:54:35;;;;;;;;;;;230.70;2252.80;;;;;;5033795;28;19909;-65
2022/09/20 03:57:24;;;;;;;;;;;230.60;2252.80;;;;;;5033711;28;19972;-64
2022/09/20 04:00:09;;;;;;;;;;;230.60;2252.80;;;;;;4953321;29;20017;-67
2022/09/20 04:02:50;;;;;;;;;;;230.60;2252.80;;;;;;4952959;29;19993;-64
2022/09/20 04:05:22;;;;;;;;;;;230.70;2252.80;;;;;;4953320;29;19910;-66
2022/09/20 04:07:57;;;;;;;;;;;230.80;2252.80;;;;;;4953271;29;19949;-65
2022/09/20 04:10:27;;;;;;;;;;;230.80;2252.80;;;;;;4952965;29;19926;-65
2022/09/20 04:12:55;;;;;;;;;;;230.90;2252.80;;;;;;4953102;29;19953;-65
2022/09/20 04:15:24;;;;;;;;;;;231.00;2252.80;;;;;;4952896;29;19921;-65
2022/09/20 04:18:10;;;;;;;;;;;231.00;2252.80;;;;;;4952994;29;19921;-63
2022/09/20 04:20:45;;;;;;;;;;;230.90;2252.80;;;;;;4895435;29;20001;-66
2022/09/20 04:23:19;;;;;;;;;;;231.10;2252.80;;;;;;4895790;29;20016;-63
2022/09/20 04:25:46;;;;;;;;;;;231.10;2252.80;;;;;;4895652;29;20354;-65
2022/09/20 04:28:14;;;;;;;;;;;231.20;2252.80;;;;;;4895798;29;20010;-67
2022/09/20 04:30:45;;;;;;;;;;;231.10;2252.80;;;;;;4895727;29;19919;-64
2022/09/20 04:33:10;;;;;;;;;;;231.10;2252.80;;;;;;4895837;29;19979;-66
2022/09/20 04:38:23;;;;;;;;;;;231.20;2252.80;;;;;;4933541;29;19918;-65
2022/09/20 04:40:58;;;;;;;;;;;231.20;2252.80;;;;;;4933525;29;20289;-65
2022/09/20 04:43:39;;;;;;;;;;;231.30;2252.80;;;;;;4933281;29;19991;-65
2022/09/20 04:46:23;;;;;;;;;;;231.30;2252.80;;;;;;4933109;29;20353;-66
2022/09/20 04:49:21;;;;;;;;;;;256.00;2252.80;;;;;;4933418;29;20277;-66
2022/09/20 04:52:02;;;;;;;;;;;256.10;2252.80;;;;;;4892140;29;20006;-64
2022/09/20 04:54:43;;;;;;;;;;;256.00;2252.80;;;;;;4933198;29;19917;-65
2022/09/20 04:57:15;;;;;;;;;;;256.10;2252.80;;;;;;4955171;28;19909;-66
2022/09/20 05:00:18;;;;;;;;;;;256.20;2252.80;;;;;;5012520;28;20261;-65
2022/09/20 05:03:02;;;;;;;;;;;256.20;2252.80;;;;;;4951993;29;19914;-64
2022/09/20 05:05:41;;;;;;;;;;;256.30;2252.80;;;;;;4952154;29;19911;-65
2022/09/20 05:08:15;;;;;;;;;;;256.20;2252.80;;;;;;4952207;29;19957;-65
2022/09/20 05:10:49;;;;;;;;;;;256.30;2252.80;;;;;;4951870;29;19910;-68
2022/09/20 05:13:20;;;;;;;;;;;256.30;2252.80;;;;;;4951914;29;19914;-68
2022/09/20 05:15:46;;;;;;;;;;;256.20;2252.80;;;;;;4951972;29;19918;-68
2022/09/20 05:18:14;;;;;;;;;;;256.50;2252.80;;;;;;4951905;29;19915;-68
2022/09/20 05:20:49;;;;;;;;;;;256.60;2252.80;;;;;;4952149;29;20342;-62
2022/09/20 05:23:33;;;;;;;;;;;256.60;2252.80;;;;;;4951697;29;19966;-65
2022/09/20 05:26:17;;;;;;;;;;;256.60;2252.80;;;;;;4951830;29;20380;-68
2022/09/20 05:28:53;;;;;;;;;;;256.70;2252.80;;;;;;4951656;29;19938;-67
2022/09/20 05:31:18;;;;;;;;;;;256.80;2252.80;;;;;;4951021;28;19950;-67
2022/09/20 05:33:50;;;;;;;;;;;281.70;2278.40;;;;;;4987802;28;19957;-66
2022/09/20 05:36:34;;;;;;;;;;;281.80;2278.40;;;;;;5012181;28;19910;-67
2022/09/20 05:39:17;;;;;;;;;;;282.00;2278.40;;;;;;5012369;28;19909;-67
2022/09/20 05:41:43;;;;;;;;;;;282.10;2278.40;;;;;;5011857;28;19913;-63
2022/09/20 05:44:18;;;;;;;;;;;282.20;2278.40;;;;;;5011996;28;19921;-61
2022/09/20 05:47:07;;;;;;;;;;;282.40;2278.40;;;;;;5031253;28;19932;-61
2022/09/20 05:49:51;;;;;;;;;;;307.40;2304.00;;;;;;5030648;28;19912;-61
2022/09/20 05:52:16;;;;;;;;;;;307.70;2304.00;;;;;;5031479;28;19909;-61
2022/09/20 05:54:42;;;;;;;;;;;307.80;2304.00;;;;;;5031278;28;19910;-61
2022/09/20 05:57:22;;;;;;;;;;;307.80;2304.00;;;;;;5031587;28;20003;-67
2022/09/20 06:00:07;;;;;;;;;;;307.70;2304.00;;;;;;5031359;28;19990;-67
2022/09/20 06:02:37;;;;;;;;;;;307.60;2304.00;;;;;;5031237;28;19916;-65
2022/09/20 06:05:21;;;;;;;;;;;307.70;2304.00;;;;;;5031244;28;19956;-67
2022/09/20 06:08:05;;;;;;;;;;;308.10;2304.00;;;;;;5031259;28;20005;-59
2022/09/20 06:10:38;;;;;;;;;;;308.10;2304.00;;;;;;5031143;28;19909;-60
2022/09/20 06:13:19;;;;;;;;;;;333.00;2329.60;;;;;;5031031;28;19917;-60
2022/09/20 06:15:54;;;;;;;;;;;333.60;2329.60;;;;;;5030879;28;19971;-60
2022/09/20 06:18:27;;;;;;;;;;;384.90;2329.60;;;;;;5031134;28;19948;-58
2022/09/20 06:21:00;;;;;;;;;;;410.00;2355.20;;;;;;5030870;28;19915;-57
2022/09/20 06:23:26;;;;;;;;;;;384.40;2329.60;;;;;;5031105;28;19925;-58
2022/09/20 06:25:56;;;;;;;;;;;359.00;2329.60;;;;;;5030571;28;19909;-60
2022/09/20 06:28:25;;;;;;;;;;;358.50;2329.60;;;;;;5030876;28;19909;-61
2022/09/20 06:30:51;;;;;;;;;;;333.70;2329.60;;;;;;5030688;28;19909;-57
2022/09/20 06:33:21;;;;;;;;;;;333.50;2329.60;;;;;;5030801;28;19955;-58
2022/09/20 06:35:51;;;;;;;;;;;333.20;2329.60;;;;;;5030702;28;19909;-58
2022/09/20 06:43:47;;;;;;;;;;;332.90;2329.60;;;;;;5030346;28;19935;-58
2022/09/20 06:46:14;;;;;;;;;;;333.20;2329.60;;;;;;5030291;28;19978;-58
2022/09/20 06:48:40;;;;;;;;;;;333.60;2329.60;;;;;;5030659;28;19951;-58
2022/09/20 06:51:08;;;;;;;;;;;358.40;2329.60;;;;;;5030592;28;19980;-58
2022/09/20 06:53:35;;;;;;;;;;;358.50;2329.60;;;;;;5030391;28;19909;-58
2022/09/20 06:56:01;;;;;;;;;;;358.70;2329.60;;;;;;5030074;28;19909;-58
2022/09/20 06:58:27;;;;;;;;;;;359.00;2329.60;;;;;;5030329;28;19955;-58
2022/09/20 07:00:52;;;;;;;;;;;359.20;2329.60;;;;;;5030353;28;19909;-59
2022/09/20 07:03:18;;;;;;;;;;;384.10;2329.60;;;;;;5030249;28;20003;-58
2022/09/20 07:05:45;;;;;;;;;;;384.90;2329.60;;;;;;5030182;28;19916;-58
2022/09/20 07:08:11;;;;;;;;;;;384.90;2329.60;;;;;;5030131;28;20405;-58
2022/09/20 07:10:37;;;;;;;;;;;384.70;2329.60;;;;;;5030415;28;19932;-58
2022/09/20 07:13:03;;;;;;;;;;;384.60;2329.60;;;;;;5030222;28;19917;-58
2022/09/20 07:15:32;;;;;;;;;;;384.50;2329.60;;;;;;5030220;28;20295;-58
2022/09/20 07:18:01;;;;;;;;;;;384.40;2329.60;;;;;;5030035;28;19936;-57
2022/09/20 07:20:26;;;;;;;;;;;384.10;2329.60;;;;;;5030494;28;20332;-58
2022/09/20 07:22:52;;;;;;;;;;;384.10;2329.60;;;;;;5030017;28;19945;-58
2022/09/20 07:25:18;;;;;;;;;;;359.30;2329.60;;;;;;5030199;28;19916;-57
2022/09/20 07:27:45;;;;;;;;;;;359.20;2329.60;;;;;;5029984;28;20004;-58
2022/09/20 07:30:12;;;;;;;;;;;384.00;2329.60;;;;;;5029969;28;19910;-58
2022/09/20 07:32:39;;;;;;;;;;;384.10;2329.60;;;;;;5030383;28;19980;-58
2022/09/20 07:35:09;;;;;;;;;;;384.00;2329.60;;;;;;5030404;28;20275;-58
2022/09/20 07:37:35;;;;;;;;;;;384.40;2329.60;;;;;;5029970;28;19913;-58
2022/09/20 07:40:01;;;;;;;;;;;384.50;2329.60;;;;;;5029996;28;19920;-58
2022/09/20 07:42:27;;;;;;;;;;;384.30;2329.60;;;;;;5029656;28;19944;-57
2022/09/20 07:44:54;;;;;;;;;;;384.30;2329.60;;;;;;5028325;28;19921;-58
2022/09/20 07:47:24;;;;;;;;;;;384.40;2329.60;;;;;;5029272;28;20478;-58
2022/09/20 07:49:50;;;;;;;;;;;384.60;2329.60;;;;;;5026697;28;19926;-58
2022/09/20 07:52:16;;;;;;;;;;;384.50;2329.60;;;;;;5029119;28;20375;-57
2022/09/20 07:54:41;;;;;;;;;;;384.70;2329.60;;;;;;5029533;28;19999;-56
2022/09/20 07:57:07;;;;;;;;;;;409.60;2355.20;;;;;;5033682;28;19955;-58
2022/09/20 07:59:33;;;;;;;;;;;409.70;2355.20;;;;;;5032237;28;19917;-58
2022/09/20 08:01:59;;;;;;;;;;;409.70;2355.20;;;;;;5033341;28;19909;-57
2022/09/20 08:04:25;;;;;;;;;;;409.90;2355.20;;;;;;5031991;28;19929;-57
2022/09/20 08:06:50;;;;;;;;;;;410.20;2355.20;;;;;;5032731;28;20007;-58
2022/09/20 08:09:16;;;;;;;;;;;435.20;2355.20;;;;;;5033193;28;19941;-57
2022/09/20 08:11:42;;;;;;;;;;;435.30;2355.20;;;;;;5032365;28;20010;-56
2022/09/20 08:14:15;;;;;;;;;;;486.40;2227.20;;;;;;5033108;28;19913;-57
2022/09/20 08:16:42;;;;;;;;;;;512.30;1996.80;;;;;;5030037;28;19964;-59
2022/09/20 08:19:12;;;;;;;;;;;563.90;1843.20;;;;;;5033088;28;20008;-59
2022/09/20 08:21:38;;;;;;;;;;;640.20;1587.20;;;;;;5033130;28;19909;-59
2022/09/20 08:24:04;;;;;;;;;;;666.10;1536.00;;;;;;5032634;28;20330;-59
2022/09/20 08:26:34;;;;;;;;;;;717.20;1408.00;;;;;;5032803;28;20013;-58
2022/09/20 08:29:00;;;;;;;;;;;717.60;1356.80;;;;;;5014702;28;19924;-60
2022/09/20 08:31:27;;;;;;;;;;;717.70;1331.20;;;;;;5032910;28;19909;-58
2022/09/20 08:33:53;;;;;;;;;;;666.30;1408.00;;;;;;5032802;28;19916;-59
2022/09/20 08:36:20;;;;;;;;;;;716.80;1382.40;;;;;;5033128;28;19909;-59
2022/09/20 08:38:45;;;;;;;;;;;717.30;1331.20;;;;;;5033098;28;19909;-59
2022/09/20 08:41:22;;;;;;;;;;;717.60;1305.60;;;;;;5032844;28;19916;-59
2022/09/20 08:44:11;;;;;;;;;;;716.80;1382.40;;;;;;5032673;28;19924;-60
2022/09/20 08:46:57;;;;;;;;;;;742.60;1305.60;;;;;;5032682;28;20348;-59
2022/09/20 08:49:27;;;;;;;;;;;717.10;1331.20;;;;;;5031897;28;19909;-59
2022/09/20 08:51:53;;;;;;;;;;;691.70;1356.80;;;;;;5032567;28;19943;-59
2022/09/20 08:54:23;;;;;;;;;;;665.60;1433.60;;;;;;5032804;28;20024;-59
2022/09/20 08:56:49;;;;;;;;;;;640.00;1484.80;;;;;;5032747;28;19909;-58
2022/09/20 08:59:19;;;;;;;;;;;614.50;1510.40;;;;;;5032695;28;19913;-58
2022/09/20 09:01:45;;;;;;;;;;;589.00;1587.20;;;;;;5032639;28;19920;-58
2022/09/20 09:04:11;;;;;;;;;;;563.40;1689.60;;;;;;5032217;28;20363;-59
2022/09/20 09:06:37;;;;;;;;;;;538.40;1689.60;;;;;;5032291;28;19916;-58
2022/09/20 09:09:03;;;;;;;;;;;538.30;1715.20;;;;;;5032255;28;19910;-58
2022/09/20 09:11:28;;;;;;;;;;;538.20;1715.20;;;;;;5032438;28;19915;-58
2022/09/20 09:13:57;;;;;;;;;;;537.70;1740.80;;;;;;5032103;28;20355;-58
2022/09/20 09:16:24;;;;;;;;;;;537.60;1766.40;;;;;;5032122;28;19913;-58
2022/09/20 09:18:50;;;;;;;;;;;512.70;1766.40;;;;;;5032256;28;19913;-58
2022/09/20 09:21:21;;;;;;;;;;;512.40;1740.80;;;;;;5032211;28;20336;-58
2022/09/20 09:24:00;;;;;;;;;;;512.40;1766.40;;;;;;5032252;28;19918;-58
2022/09/20 09:26:25;;;;;;;;;;;512.00;1792.00;;;;;;5032007;28;19913;-58
2022/09/20 09:29:23;;;;;;;;;;;512.40;1766.40;;;;;;5032058;28;19995;-58
2022/09/20 09:31:50;;;;;;;;;;;512.70;1766.40;;;;;;4951756;29;19921;-58
2022/09/20 09:34:28;;;;;;;;;;;537.60;1817.60;;;;;;4951766;29;20354;-58
2022/09/20 09:36:54;;;;;;;;;;;537.80;1740.80;;;;;;4951516;29;20009;-57
2022/09/20 09:39:25;;;;;;;;;;;538.20;1689.60;;;;;;4951827;29;20352;-59
2022/09/20 09:41:51;;;;;;;;;;;537.90;1740.80;;;;;;4951434;29;19910;-59
2022/09/20 09:44:19;;;;;;;;;;;538.10;1715.20;;;;;;4951513;29;19929;-57
2022/09/20 09:46:45;;;;;;;;;;;538.00;1689.60;;;;;;4951337;29;19926;-58
2022/09/20 09:49:19;;;;;;;;;;;537.90;1664.00;;;;;;4951183;29;20373;-59
2022/09/20 09:52:03;;;;;;;;;;;538.00;1689.60;;;;;;4951228;29;20373;-56
2022/09/20 09:54:30;;;;;;;;;;;538.00;1664.00;;;;;;4951301;29;19966;-59
2022/09/20 09:56:56;;;;;;;;;;;538.00;1689.60;;;;;;4951208;29;19926;-57
2022/09/20 09:59:37;;;;;;;;;;;538.00;1664.00;;;;;;4951060;29;19910;-59
2022/09/20 10:02:12;;;;;;;;;;;537.90;1689.60;;;;;;4950566;29;19921;-58
2022/09/20 10:04:43;;;;;;;;;;;538.20;1664.00;;;;;;4950807;29;19918;-57
2022/09/20 10:07:13;;;;;;;;;;;538.50;1664.00;;;;;;4982851;28;20011;-58
2022/09/20 10:09:45;;;;;;;;;;;563.30;1664.00;;;;;;5029106;28;19952;-58
2022/09/20 10:12:22;;;;;;;;;;;563.50;1664.00;;;;;;5031181;28;20145;-59
2022/09/20 10:14:55;;;;;;;;;;;563.30;1638.40;;;;;;5030956;28;19920;-57
2022/09/20 10:17:27;;;;;;;;;;;563.30;1638.40;;;;;;5030494;28;19920;-59
2022/09/20 10:20:14;;;;;;;;;;;538.40;1638.40;;;;;;5030890;28;19909;-59
2022/09/20 10:22:55;;;;;;;;;;;538.40;1689.60;;;;;;5031292;28;19909;-58
2022/09/20 10:25:37;;;;;;;;;;;563.30;1689.60;;;;;;5030707;28;19963;-59
2022/09/20 10:28:18;;;;;;;;;;;563.50;1689.60;;;;;;5030769;28;19909;-59
2022/09/20 10:31:00;;;;;;;;;;;563.20;1638.40;;;;;;5030402;28;19963;-58
2022/09/20 10:33:36;;;;;;;;;;;538.20;1587.20;;;;;;5030955;28;19910;-58
2022/09/20 10:36:17;;;;;;;;;;;538.20;1638.40;;;;;;5030626;28;19952;-57
2022/09/20 10:38:42;;;;;;;;;;;537.70;1689.60;;;;;;5030677;28;19909;-58
2022/09/20 10:44:11;;;;;;;;;;;537.90;1638.40;;;;;;5030387;28;19928;-58
2022/09/20 10:46:39;;;;;;;;;;;512.90;1638.40;;;;;;5030663;28;19932;-59
2022/09/20 10:49:37;;;;;;;;;;;537.90;1638.40;;;;;;5030546;28;20046;-58
2022/09/20 10:52:15;;;;;;;;;;;538.40;1587.20;;;;;;5030558;28;19968;-59
2022/09/20 10:54:46;;;;;;;;;;;538.30;1587.20;;;;;;5030329;28;19909;-59
2022/09/20 10:57:21;;;;;;;;;;;538.40;1638.40;;;;;;5030073;28;19944;-59
2022/09/20 11:00:06;;;;;;;;;;;538.40;1587.20;;;;;;5030614;28;20004;-58
2022/09/20 11:02:40;;;;;;;;;;;563.20;1664.00;;;;;;5012627;28;19916;-58
2022/09/20 11:05:08;;;;;;;;;;;563.30;1587.20;;;;;;5030474;28;19920;-58
2022/09/20 11:07:51;;;;;;;;;;;563.40;1561.60;;;;;;5030290;28;19955;-58
2022/09/20 11:10:27;;;;;;;;;;;563.50;1561.60;;;;;;5030427;28;19909;-55
2022/09/20 11:13:03;;;;;;;;;;;538.30;1536.00;;;;;;5029871;28;19914;-57
2022/09/20 11:15:34;;;;;;;;;;;538.20;1587.20;;;;;;5010466;28;19913;-59
2022/09/20 11:18:11;;;;;;;;;;;537.90;1561.60;;;;;;5015418;28;19943;-58
2022/09/20 11:20:43;;;;;;;;;;;538.00;1587.20;;;;;;5028219;28;19913;-57
2022/09/20 11:23:15;;;;;;;;;;;537.60;1638.40;;;;;;5029797;28;19916;-58
2022/09/20 11:26:01;;;;;;;;;;;512.70;1638.40;;;;;;5030082;28;19913;-58
2022/09/20 11:28:32;;;;;;;;;;;512.20;1664.00;;;;;;4950229;29;19922;-57
2022/09/20 11:30:59;;;;;;;;;;;487.20;1689.60;;;;;;4952431;29;19911;-61
2022/09/20 11:33:27;;;;;;;;;;;486.90;1689.60;;;;;;4953821;29;20412;-60
2022/09/20 11:36:04;;;;;;;;;;;486.70;1715.20;;;;;;4953783;29;19958;-60
2022/09/20 11:38:46;;;;;;;;;;;461.70;1715.20;;;;;;4953886;29;19999;-60
2022/09/20 11:41:14;;;;;;;;;;;486.50;1715.20;;;;;;4953494;29;19910;-61
2022/09/20 11:43:43;;;;;;;;;;;486.50;1715.20;;;;;;4953785;29;19919;-60
2022/09/20 11:46:11;;;;;;;;;;;486.80;1740.80;;;;;;4950781;29;19941;-60
2022/09/20 11:48:44;;;;;;;;;;;487.00;1715.20;;;;;;4951773;29;19918;-61
2022/09/20 11:51:21;;;;;;;;;;;487.10;1689.60;;;;;;4951733;29;20373;-60
2022/09/20 11:53:47;;;;;;;;;;;487.20;1689.60;;;;;;4951796;29;20369;-60
2022/09/20 11:56:12;;;;;;;;;;;512.00;1715.20;;;;;;4950557;29;19948;-60
2022/09/20 11:58:48;;;;;;;;;;;512.30;1689.60;;;;;;4951646;29;19915;-61
2022/09/20 12:01:32;;;;;;;;;;;512.40;1689.60;;;;;;4951438;29;19962;-60
2022/09/20 12:04:01;;;;;;;;;;;512.70;1664.00;;;;;;4951530;29;20001;-60
2022/09/20 12:06:37;;;;;;;;;;;512.90;1587.20;;;;;;5021423;28;20363;-60
2022/09/20 12:09:05;;;;;;;;;;;512.40;1587.20;;;;;;5031521;28;20430;-61
2022/09/20 12:11:35;;;;;;;;;;;512.90;1587.20;;;;;;5031502;28;19935;-60
2022/09/20 12:14:05;;;;;;;;;;;512.60;1561.60;;;;;;5031312;28;19916;-61
2022/09/20 12:16:36;;;;;;;;;;;512.60;1612.80;;;;;;5031820;28;19917;-61
2022/09/20 12:19:06;;;;;;;;;;;512.20;1612.80;;;;;;5031645;28;20003;-61
2022/09/20 12:21:52;;;;;;;;;;;487.10;1638.40;;;;;;5031092;28;19913;-60
2022/09/20 12:24:19;;;;;;;;;;;487.00;1638.40;;;;;;5031599;28;19925;-61
2022/09/20 12:26:45;;;;;;;;;;;486.80;1664.00;;;;;;5032667;28;19913;-60
2022/09/20 12:29:23;;;;;;;;;;;486.80;1664.00;;;;;;5033379;28;19971;-60
2022/09/20 12:31:50;;;;;;;;;;;487.10;1689.60;;;;;;5033222;28;20001;-59
2022/09/20 12:34:16;;;;;;;;;;;512.20;1689.60;;;;;;5030635;28;19953;-60
2022/09/20 12:37:04;;;;;;;;;;;512.70;1612.80;;;;;;5031310;28;19979;-60
2022/09/20 12:39:34;;;;;;;;;;;537.70;1664.00;;;;;;5031311;28;19909;-60
2022/09/20 12:42:01;;;;;;;;;;;538.20;1638.40;;;;;;5030809;28;19913;-60
2022/09/20 12:44:36;;;;;;;;;;;563.30;1587.20;;;;;;5030988;28;19948;-60
2022/09/20 12:47:01;;;;;;;;;;;538.50;1664.00;;;;;;5030615;28;19932;-60
2022/09/20 12:55:25;;;;;;;;;;;537.90;1612.80;;;;;;5031012;28;19920;-59
2022/09/20 12:57:57;;;;;;;;;;;537.60;1638.40;;;;;;5031113;28;19913;-60
2022/09/20 13:00:41;;;;;;;;;;;512.50;1612.80;;;;;;5030591;28;19916;-61
2022/09/20 13:03:11;;;;;;;;;;;512.70;1612.80;;;;;;5031014;28;19960;-60
2022/09/20 13:05:38;;;;;;;;;;;512.80;1587.20;;;;;;5030901;28;19909;-60
2022/09/20 13:08:09;;;;;;;;;;;512.80;1612.80;;;;;;5030644;28;19927;-60
2022/09/20 13:10:36;;;;;;;;;;;512.80;1561.60;;;;;;5030872;28;19944;-60
2022/09/20 13:13:11;;;;;;;;;;;512.80;1587.20;;;;;;5030304;28;19915;-61
2022/09/20 13:15:39;;;;;;;;;;;512.20;1561.60;;;;;;5030487;28;19913;-60
2022/09/20 13:18:05;;;;;;;;;;;487.30;1510.40;;;;;;5030624;28;20327;-60
2022/09/20 13:20:33;;;;;;;;;;;486.90;1561.60;;;;;;5030462;28;19909;-60
2022/09/20 13:23:00;;;;;;;;;;;487.00;1612.80;;;;;;5030632;28;19951;-59
2022/09/20 13:25:27;;;;;;;;;;;486.80;1638.40;;;;;;5030164;28;19913;-64
2022/09/20 13:28:12;;;;;;;;;;;486.80;1587.20;;;;;;5030279;28;19909;-66
2022/09/20 13:30:40;;;;;;;;;;;487.00;1638.40;;;;;;5030527;28;20420;-60
2022/09/20 13:33:16;;;;;;;;;;;487.10;1638.40;;;;;;5030370;28;19948;-60
2022/09/20 13:35:43;;;;;;;;;;;487.10;1638.40;;;;;;5030389;28;20229;-59
2022/09/20 13:38:08;;;;;;;;;;;487.00;1612.80;;;;;;5030076;28;19944;-60
2022/09/20 13:40:35;;;;;;;;;;;486.50;1536.00;;;;;;5030266;28;19941;-60
2022/09/20 13:43:02;;;;;;;;;;;486.50;1612.80;;;;;;5029803;28;19959;-60
2022/09/20 13:45:29;;;;;;;;;;;486.80;1664.00;;;;;;5029828;28;19921;-60
2022/09/20 13:47:57;;;;;;;;;;;487.10;1689.60;;;;;;5029895;28;20141;-60
2022/09/20 13:50:27;;;;;;;;;;;487.10;1638.40;;;;;;5030144;28;19920;-60
2022/09/20 13:52:54;;;;;;;;;;;487.10;1664.00;;;;;;5028700;28;20356;-61
2022/09/20 13:55:27;;;;;;;;;;;487.10;1664.00;;;;;;5030089;28;19969;-60
2022/09/20 13:57:54;;;;;;;;;;;487.20;1612.80;;;;;;5029718;28;19916;-61
2022/09/20 14:00:20;;;;;;;;;;;487.10;1664.00;;;;;;5029986;28;19913;-60
2022/09/20 14:02:47;;;;;;;;;;;487.20;1612.80;;;;;;5029717;28;20279;-60
2022/09/20 14:05:17;;;;;;;;;;;487.30;1638.40;;;;;;5029176;28;19917;-61
2022/09/20 14:07:44;;;;;;;;;;;512.00;1561.60;;;;;;5029684;28;19916;-59
2022/09/20 14:10:33;;;;;;;;;;;512.00;1638.40;;;;;;5029858;28;19916;-60
2022/09/20 14:13:01;;;;;;;;;;;512.20;1612.80;;;;;;5029532;28;20371;-61
2022/09/20 14:15:29;;;;;;;;;;;512.10;1587.20;;;;;;5029364;28;20008;-59
2022/09/20 14:17:55;;;;;;;;;;;512.30;1638.40;;;;;;5028848;28;19921;-60
2022/09/20 14:20:21;;;;;;;;;;;512.50;1664.00;;;;;;5029406;28;19932;-60
2022/09/20 14:22:47;;;;;;;;;;;512.60;1612.80;;;;;;5029467;28;20010;-60
2022/09/20 14:25:12;;;;;;;;;;;512.60;1612.80;;;;;;5029116;28;20436;-60